Aobamaru — JD3334 — position and weather

sailwx.info

Track history (hours):
 
Tides and Currents Weather Stations Pressure Air Temp Water Temp Dewpoint Dewpoint Depression Visibility Wind Speed Wind Dir Waves Ship Positions

Aobamaru

Last reported at 2017-Oct-18 16:31 UTC. Time now 2017-Oct-18 16:34 UTC.
Position N 35°13' E 139°43'.

Length 38 m; draft 3 m.

Type: Tug. MMSI: 431003385.

Date/timePositionNaut miles runAvg speedWind from/ knotsBaromVisibWave heightAir tempDewpointWater temp
2017-Oct-18 16:31N 35°13' E 139°43'0 0.0
2017-Oct-18 16:00N 35°13' E 139°43'0 0.0
2017-Oct-18 15:30N 35°13' E 139°43'0 0.0
2017-Oct-18 15:00N 35°13' E 139°43'0 0.0
2017-Oct-18 14:01N 35°13' E 139°43'0 0.0
2017-Oct-18 13:30N 35°13' E 139°43'0 0.0
2017-Oct-18 13:00N 35°13' E 139°43'0 0.0
2017-Oct-18 12:28N 35°13' E 139°43'0 0.0
2017-Oct-18 12:01N 35°13' E 139°43'0 0.0
2017-Oct-18 11:30N 35°13' E 139°43'0 0.0
2017-Oct-18 10:59N 35°13' E 139°43'0 0.0
2017-Oct-18 10:29N 35°13' E 139°43'0 0.0
2017-Oct-18 10:00N 35°13' E 139°43'0 0.0
2017-Oct-18 09:30N 35°13' E 139°43'0 0.0
2017-Oct-18 08:58N 35°13' E 139°43'0 0.0
2017-Oct-18 08:30N 35°13' E 139°43'0 0.0
2017-Oct-18 07:55N 35°13' E 139°43'0 0.0
2017-Oct-18 07:29N 35°13' E 139°43'0 0.0
2017-Oct-18 07:00N 35°13' E 139°43'0 0.0
2017-Oct-18 06:23N 35°13' E 139°43'0 0.0
2017-Oct-18 05:59N 35°13' E 139°43'0 0.0
2017-Oct-18 05:29N 35°13' E 139°43'0 0.0
2017-Oct-18 04:57N 35°13' E 139°43'0 0.0
2017-Oct-18 04:27N 35°13' E 139°43'0 0.0
2017-Oct-18 03:59N 35°13' E 139°43'0 0.0
2017-Oct-18 03:13N 35°13' E 139°43'0 0.0
2017-Oct-18 02:23N 35°13' E 139°43'0 0.0
2017-Oct-18 01:16N 35°13' E 139°43'0 0.0
2017-Oct-18 00:43N 35°13' E 139°43'0 0.0
2017-Oct-18 00:23N 35°13' E 139°43'0 0.0
2017-Oct-17 23:40N 35°13' E 139°43'0 0.0
2017-Oct-17 23:24N 35°13' E 139°43'0 0.0
2017-Oct-17 23:01N 35°13' E 139°43'0 0.0
2017-Oct-17 22:29N 35°13' E 139°43'0 0.0
2017-Oct-17 22:00N 35°13' E 139°43'2 4.9
2017-Oct-17 21:30N 35°12' E 139°46'4 8.8
2017-Oct-17 21:00N 35°17' E 139°45'612.1
2017-Oct-17 20:30N 35°22' E 139°42'2 3.8
2017-Oct-17 20:00N 35°23' E 139°44'0 0.0
2017-Oct-17 19:31N 35°23' E 139°44'0 0.0
2017-Oct-17 19:01N 35°23' E 139°44'0 0.0
2017-Oct-17 18:30N 35°23' E 139°44'0 0.0
2017-Oct-17 18:00N 35°23' E 139°44'0 0.0
2017-Oct-17 17:30N 35°23' E 139°44'0 0.0
2017-Oct-17 17:01N 35°23' E 139°44'0 0.0
2017-Oct-17 16:30N 35°23' E 139°44'4 7.3
2017-Oct-17 16:00N 35°20' E 139°42'611.6
2017-Oct-17 15:30N 35°15' E 139°45'1 1.4
2017-Oct-17 15:00N 35°15' E 139°46'612.9
2017-Oct-17 14:31N 35°21' E 139°42'3 5.7
2017-Oct-17 14:01N 35°23' E 139°41'0 0.5
2017-Oct-17 13:31N 35°23' E 139°40'0 0.0
2017-Oct-17 13:00N 35°23' E 139°40'0 0.0
2017-Oct-17 12:30N 35°23' E 139°40'0 0.0
2017-Oct-17 12:01N 35°23' E 139°40'0 0.0
2017-Oct-17 11:31N 35°23' E 139°40'0 0.0
2017-Oct-17 11:01N 35°23' E 139°40'3 5.1
2017-Oct-17 10:30N 35°20' E 139°41'611.5
2017-Oct-17 10:01N 35°16' E 139°45'2 3.4
2017-Oct-17 09:30N 35°14' E 139°46'612.3
2017-Oct-17 09:00N 35°20' E 139°43'4 8.1
2017-Oct-17 08:30N 35°23' E 139°41'0 1.0
2017-Oct-17 08:01N 35°23' E 139°40'0 0.0
2017-Oct-17 07:30N 35°23' E 139°40'0 0.0
2017-Oct-17 07:01N 35°23' E 139°40'0 0.0
2017-Oct-17 06:30N 35°23' E 139°40'0 0.1
2017-Oct-17 06:00N 35°23' E 139°40'610.9
2017-Oct-17 05:30N 35°26' E 139°46'3 6.9
2017-Oct-17 05:00N 35°26' E 139°50'3 5.1
2017-Oct-17 04:30N 35°25' E 139°47'511.0
2017-Oct-17 04:00N 35°20' E 139°44'510.9
2017-Oct-17 03:30N 35°15' E 139°47'510.6
2017-Oct-17 03:00N 35°10' E 139°47'3 6.1
2017-Oct-17 02:30N 35°13' E 139°46'3 3.9
2017-Oct-17 01:50N 35°13' E 139°43'0 0.0
2017-Oct-17 01:28N 35°13' E 139°43'0 0.0
2017-Oct-17 00:53N 35°13' E 139°43'0 0.0
2017-Oct-16 23:44N 35°13' E 139°43'0 0.0
2017-Oct-16 23:30N 35°13' E 139°43'0 0.0
2017-Oct-16 22:58N 35°13' E 139°43'0 0.0
2017-Oct-16 20:26N 35°13' E 139°43'0 0.0
2017-Oct-16 20:00N 35°13' E 139°43'0 0.0
2017-Oct-16 19:30N 35°13' E 139°43'0 0.0
2017-Oct-16 18:55N 35°13' E 139°43'0 0.0
2017-Oct-16 18:29N 35°13' E 139°43'0 0.0
2017-Oct-16 18:00N 35°13' E 139°43'0 0.0
2017-Oct-16 17:30N 35°13' E 139°43'0 0.0
2017-Oct-16 17:00N 35°13' E 139°43'0 0.0
2017-Oct-16 16:27N 35°13' E 139°43'0 0.0
2017-Oct-16 15:59N 35°13' E 139°43'0 0.0
2017-Oct-16 15:26N 35°13' E 139°43'0 0.0
2017-Oct-16 15:00N 35°13' E 139°43'0 0.0
2017-Oct-16 13:52N 35°13' E 139°43'0 0.0
2017-Oct-16 13:29N 35°13' E 139°43'0 0.0
2017-Oct-16 12:33N 35°13' E 139°43'0 0.0
2017-Oct-16 12:27N 35°13' E 139°43'0 0.0
2017-Oct-16 10:02N 35°13' E 139°43'0 0.0
2017-Oct-16 10:00N 35°13' E 139°43'0 0.0
2017-Oct-16 09:23N 35°13' E 139°43'0 0.0
2017-Oct-16 01:05N 35°13' E 139°43'0 0.1
2017-Oct-16 01:00N 35°13' E 139°43'3 6.0
2017-Oct-16 00:30N 35°16' E 139°45'510.8
2017-Oct-16 00:00N 35°21' E 139°43'612.4
2017-Oct-15 23:30N 35°26' E 139°46'3 5.9
2017-Oct-15 23:01N 35°23' E 139°46'611.2
2017-Oct-15 22:30N 35°17' E 139°45'510.9
2017-Oct-15 22:00N 35°12' E 139°47'1 2.9
2017-Oct-15 21:30N 35°11' E 139°46'4 7.2
2017-Oct-15 21:01N 35°13' E 139°43'0 0.0
2017-Oct-15 20:31N 35°13' E 139°43'0 0.0
2017-Oct-15 20:00N 35°13' E 139°43'0 0.0
2017-Oct-15 19:30N 35°13' E 139°43'0 0.0
2017-Oct-15 19:01N 35°13' E 139°43'0 0.0
2017-Oct-15 18:30N 35°13' E 139°43'0 0.0
2017-Oct-15 18:01N 35°13' E 139°43'0 0.0
2017-Oct-15 17:30N 35°13' E 139°43'0 0.0
2017-Oct-15 17:01N 35°13' E 139°43'2 4.9
2017-Oct-15 16:30N 35°12' E 139°46'4 8.9
2017-Oct-15 16:01N 35°17' E 139°45'611.9
2017-Oct-15 15:30N 35°22' E 139°42'2 4.3
2017-Oct-15 15:00N 35°23' E 139°40'0 0.0
2017-Oct-15 14:00N 35°23' E 139°40'0 0.0
2017-Oct-15 13:30N 35°23' E 139°40'0 0.0
2017-Oct-15 13:00N 35°23' E 139°40'1 1.0
2017-Oct-15 12:30N 35°23' E 139°40'611.8
2017-Oct-15 12:00N 35°18' E 139°43'611.4
2017-Oct-15 11:30N 35°12' E 139°46'611.8
2017-Oct-15 11:01N 35°18' E 139°44'611.6
2017-Oct-15 10:31N 35°23' E 139°41'1 1.4
2017-Oct-15 10:01N 35°23' E 139°40'0 0.3
2017-Oct-15 09:31N 35°23' E 139°40'0 0.0
2017-Oct-15 09:01N 35°23' E 139°40'1 2.8
2017-Oct-15 08:30N 35°23' E 139°41'611.4
2017-Oct-15 08:01N 35°18' E 139°45'612.1
2017-Oct-15 07:30N 35°12' E 139°47'1 2.1
2017-Oct-15 07:00N 35°12' E 139°45'3 5.3
2017-Oct-15 06:30N 35°13' E 139°43'0 0.0
2017-Oct-15 06:00N 35°13' E 139°43'0 0.0
2017-Oct-15 05:30N 35°13' E 139°43'0 0.0
2017-Oct-15 05:00N 35°13' E 139°43'0 0.0
2017-Oct-15 04:30N 35°13' E 139°43'0 0.0
2017-Oct-15 04:00N 35°13' E 139°43'0 0.0
2017-Oct-15 03:30N 35°13' E 139°43'0 0.0
2017-Oct-15 03:00N 35°13' E 139°43'0 0.0
2017-Oct-15 02:30N 35°13' E 139°43'0 0.0
2017-Oct-15 02:00N 35°13' E 139°43'0 0.1
2017-Oct-15 01:30N 35°13' E 139°43'0 0.0
2017-Oct-15 00:59N 35°13' E 139°43'0 0.0
2017-Oct-15 00:30N 35°13' E 139°43'0 0.0
2017-Oct-14 23:59N 35°13' E 139°43'0 0.0
2017-Oct-14 23:29N 35°13' E 139°43'0 0.0
2017-Oct-14 22:59N 35°13' E 139°43'0 0.0
2017-Oct-14 22:26N 35°13' E 139°43'0 0.0
2017-Oct-14 22:00N 35°13' E 139°43'0 0.0
2017-Oct-14 21:28N 35°13' E 139°43'0 0.0
2017-Oct-14 20:54N 35°13' E 139°43'0 0.0
2017-Oct-14 20:30N 35°13' E 139°43'0 0.0
2017-Oct-14 20:00N 35°13' E 139°43'0 0.0
2017-Oct-14 19:29N 35°13' E 139°43'0 0.0
2017-Oct-14 18:55N 35°13' E 139°43'0 0.0
2017-Oct-14 18:29N 35°13' E 139°43'0 0.0
2017-Oct-14 17:46N 35°13' E 139°43'0 0.0
2017-Oct-14 17:30N 35°13' E 139°43'0 0.0
2017-Oct-14 16:59N 35°13' E 139°43'0 0.0
2017-Oct-14 16:17N 35°13' E 139°43'0 0.0
2017-Oct-14 15:57N 35°13' E 139°43'0 0.0
2017-Oct-14 14:40N 35°13' E 139°43'0 0.0
2017-Oct-14 13:54N 35°13' E 139°43'0 0.0
2017-Oct-14 13:30N 35°13' E 139°43'0 0.0
2017-Oct-14 12:59N 35°13' E 139°43'0 0.0
2017-Oct-14 12:06N 35°13' E 139°43'0 0.0
2017-Oct-14 10:22N 35°13' E 139°43'0 0.0
2017-Oct-14 08:23N 35°13' E 139°43'0 0.0
2017-Oct-14 07:42N 35°13' E 139°43'0 0.0
2017-Oct-14 07:25N 35°13' E 139°43'0 0.0
2017-Oct-14 06:24N 35°13' E 139°43'0 0.0
2017-Oct-14 05:20N 35°13' E 139°43'0 0.0
2017-Oct-14 04:54N 35°13' E 139°43'0 0.0
2017-Oct-14 03:19N 35°13' E 139°43'2 7.0
2017-Oct-14 03:00N 35°12' E 139°45'4 7.7
2017-Oct-14 02:30N 35°16' E 139°46'612.5
2017-Oct-14 02:00N 35°22' E 139°42'612.3
2017-Oct-14 01:30N 35°27' E 139°47'8 2.7
2017-Oct-13 22:43N 35°29' E 139°56'311.1
2017-Oct-13 22:27N 35°27' E 139°53'5 9.9
2017-Oct-13 21:58N 35°24' E 139°49'510.6
2017-Oct-13 21:30N 35°20' E 139°45'4 7.1
2017-Oct-13 21:00N 35°17' E 139°44'4 7.0
2017-Oct-13 20:30N 35°13' E 139°43'0 0.2
2017-Oct-13 20:00N 35°13' E 139°43'0 0.0
2017-Oct-13 19:30N 35°13' E 139°43'0 0.0
2017-Oct-13 19:00N 35°13' E 139°43'0 0.0
2017-Oct-13 18:30N 35°13' E 139°43'0 0.0
2017-Oct-13 18:00N 35°13' E 139°43'0 0.0
2017-Oct-13 17:30N 35°13' E 139°43'0 0.0
2017-Oct-13 17:00N 35°13' E 139°43'0 0.0
2017-Oct-13 16:30N 35°13' E 139°43'0 0.0
2017-Oct-13 16:00N 35°13' E 139°43'0 0.0
2017-Oct-13 15:30N 35°13' E 139°43'0 0.0
2017-Oct-13 15:00N 35°13' E 139°43'0 0.0
2017-Oct-13 14:30N 35°13' E 139°43'0 0.0
2017-Oct-13 14:00N 35°13' E 139°43'0 0.0
2017-Oct-13 13:30N 35°13' E 139°43'0 0.0
2017-Oct-13 13:00N 35°13' E 139°43'0 0.0
2017-Oct-13 12:30N 35°13' E 139°43'0 0.0
2017-Oct-13 12:00N 35°13' E 139°43'0 0.0
2017-Oct-13 11:30N 35°13' E 139°43'0 0.0
2017-Oct-13 11:00N 35°13' E 139°43'0 0.0
2017-Oct-13 10:30N 35°13' E 139°43'0 0.0
2017-Oct-13 10:00N 35°13' E 139°43'0 0.0
2017-Oct-13 09:30N 35°13' E 139°43'0 0.0
2017-Oct-13 09:00N 35°13' E 139°43'0 0.0
2017-Oct-13 08:30N 35°13' E 139°43'0 0.0
2017-Oct-13 08:00N 35°13' E 139°43'0 0.0
2017-Oct-13 07:30N 35°13' E 139°43'0 0.0
2017-Oct-13 07:00N 35°13' E 139°43'3 6.7
2017-Oct-13 06:30N 35°16' E 139°45'611.5
2017-Oct-13 06:00N 35°21' E 139°41'611.4
2017-Oct-13 05:30N 35°26' E 139°45'1 2.4
2017-Oct-13 05:00N 35°27' E 139°46'2 4.1
2017-Oct-13 04:30N 35°25' E 139°46'510.4
2017-Oct-13 04:00N 35°20' E 139°44'611.1
2017-Oct-13 03:30N 35°15' E 139°47'510.7
2017-Oct-13 03:01N 35°09' E 139°46'2 3.0
2017-Oct-13 02:30N 35°11' E 139°47'4 7.5
2017-Oct-13 02:00N 35°13' E 139°43'0 0.3
2017-Oct-13 01:30N 35°13' E 139°43'0 0.0
2017-Oct-13 01:00N 35°13' E 139°43'0 0.0
2017-Oct-13 00:30N 35°13' E 139°43'0 0.0
2017-Oct-13 00:00N 35°13' E 139°43'0 0.0
2017-Oct-12 23:30N 35°13' E 139°43'0 0.0
2017-Oct-12 23:00N 35°13' E 139°43'0 0.0
2017-Oct-12 22:30N 35°13' E 139°43'0 0.0
2017-Oct-12 22:00N 35°13' E 139°43'0 0.0
2017-Oct-12 21:30N 35°13' E 139°43'0 0.0
2017-Oct-12 21:00N 35°13' E 139°43'0 0.0
2017-Oct-12 20:30N 35°13' E 139°43'0 0.0
2017-Oct-12 20:00N 35°13' E 139°43'0 0.0
2017-Oct-12 19:30N 35°13' E 139°43'0 0.0
2017-Oct-12 19:00N 35°13' E 139°43'0 0.0
2017-Oct-12 18:30N 35°13' E 139°43'0 0.0
2017-Oct-12 18:00N 35°13' E 139°43'0 0.0
2017-Oct-12 17:30N 35°13' E 139°43'0 0.0
2017-Oct-12 17:00N 35°13' E 139°43'0 0.0
2017-Oct-12 16:30N 35°13' E 139°43'0 0.0
2017-Oct-12 16:00N 35°13' E 139°43'0 0.0
2017-Oct-12 15:30N 35°13' E 139°43'0 0.0
2017-Oct-12 15:00N 35°13' E 139°43'0 0.0
2017-Oct-12 14:30N 35°13' E 139°43'0 0.0
2017-Oct-12 14:00N 35°13' E 139°43'0 0.0
2017-Oct-12 13:30N 35°13' E 139°43'0 0.0
2017-Oct-12 13:00N 35°13' E 139°43'0 0.0
2017-Oct-12 12:30N 35°13' E 139°43'0 0.0
2017-Oct-12 12:00N 35°13' E 139°43'0 0.0
2017-Oct-12 11:30N 35°13' E 139°43'0 0.0
2017-Oct-12 11:00N 35°13' E 139°43'0 0.0
2017-Oct-12 10:30N 35°13' E 139°43'0 0.0
2017-Oct-12 10:00N 35°13' E 139°43'0 0.0
2017-Oct-12 09:30N 35°13' E 139°43'0 0.0
2017-Oct-12 09:00N 35°13' E 139°43'0 0.0
2017-Oct-12 08:30N 35°13' E 139°43'0 0.0
2017-Oct-12 08:00N 35°13' E 139°43'0 0.0
2017-Oct-12 07:30N 35°13' E 139°43'0 0.0
2017-Oct-12 07:00N 35°13' E 139°43'0 0.0
2017-Oct-12 06:30N 35°13' E 139°43'0 0.0
2017-Oct-12 06:00N 35°13' E 139°43'0 0.0
2017-Oct-12 05:30N 35°13' E 139°43'0 0.0
2017-Oct-12 05:00N 35°13' E 139°43'0 0.0
2017-Oct-12 04:30N 35°13' E 139°43'0 0.0
2017-Oct-12 04:00N 35°13' E 139°43'0 0.0
2017-Oct-12 03:30N 35°13' E 139°43'0 0.0
2017-Oct-12 03:00N 35°13' E 139°43'3 6.3
2017-Oct-12 02:30N 35°12' E 139°46'612.1
2017-Oct-12 02:00N 35°18' E 139°44'612.4
2017-Oct-12 01:30N 35°24' E 139°43'4 8.5
2017-Oct-12 01:00N 35°23' E 139°48'3 2.8
2017-Oct-11 23:55N 35°20' E 139°49'1 2.1
2017-Oct-11 23:30N 35°21' E 139°49'0 0.0
2017-Oct-11 23:00N 35°21' E 139°49'0 0.0
2017-Oct-11 22:30N 35°21' E 139°49'0 0.0
2017-Oct-11 22:00N 35°21' E 139°49'0 0.0
2017-Oct-11 21:30N 35°21' E 139°49'5 7.5
2017-Oct-11 20:53N 35°21' E 139°44'411.3
2017-Oct-11 20:30N 35°17' E 139°46'611.9
2017-Oct-11 20:00N 35°11' E 139°47'0 0.9
2017-Oct-11 19:30N 35°11' E 139°47'4 7.1
2017-Oct-11 19:00N 35°13' E 139°43'0 0.3
2017-Oct-11 18:30N 35°13' E 139°43'0 0.0
2017-Oct-11 18:01N 35°13' E 139°43'0 0.0
2017-Oct-11 17:30N 35°13' E 139°43'0 0.0
2017-Oct-11 16:59N 35°13' E 139°43'6 0.4
2017-Oct-10 23:55N 35°19' E 139°44'612.3
2017-Oct-10 23:28N 35°14' E 139°47'511.2
2017-Oct-10 23:00N 35°09' E 139°46'3 6.6
2017-Oct-10 22:30N 35°12' E 139°45'2 3.6
2017-Oct-10 21:59N 35°13' E 139°43'0 0.0
2017-Oct-10 21:29N 35°13' E 139°43'0 0.0
2017-Oct-10 21:00N 35°13' E 139°43'0 0.0
2017-Oct-10 20:27N 35°13' E 139°43'0 0.0
2017-Oct-10 19:50N 35°13' E 139°43'0 0.0
2017-Oct-10 19:30N 35°13' E 139°43'0 0.0
2017-Oct-10 18:56N 35°13' E 139°43'0 0.0
2017-Oct-10 18:30N 35°13' E 139°43'0 0.0
2017-Oct-10 17:52N 35°13' E 139°43'0 0.0
2017-Oct-10 17:27N 35°13' E 139°43'0 0.0
2017-Oct-10 16:58N 35°13' E 139°43'0 0.0
2017-Oct-10 16:26N 35°13' E 139°43'0 0.0
2017-Oct-10 15:59N 35°13' E 139°43'0 0.0
2017-Oct-10 15:30N 35°13' E 139°43'0 0.0
2017-Oct-10 14:42N 35°13' E 139°43'0 0.0
2017-Oct-10 13:58N 35°13' E 139°43'0 0.0
2017-Oct-10 13:30N 35°13' E 139°43'0 0.0
2017-Oct-10 13:00N 35°13' E 139°43'0 0.0
2017-Oct-10 12:30N 35°13' E 139°43'0 0.0
2017-Oct-10 11:36N 35°13' E 139°43'0 0.0
2017-Oct-10 11:23N 35°13' E 139°43'0 0.0
2017-Oct-10 10:31N 35°13' E 139°43'0 0.0
2017-Oct-10 10:30N 35°13' E 139°43'0 0.0
2017-Oct-10 10:00N 35°13' E 139°43'0 0.0
2017-Oct-10 09:30N 35°13' E 139°43'0 0.0
2017-Oct-10 07:15N 35°13' E 139°43'0 0.0
2017-Oct-10 06:56N 35°13' E 139°43'0 0.0
2017-Oct-10 06:29N 35°13' E 139°43'0 0.0
2017-Oct-10 05:41N 35°13' E 139°43'0 0.0
2017-Oct-10 05:15N 35°13' E 139°43'0 0.0
2017-Oct-10 05:00N 35°13' E 139°43'0 0.0
2017-Oct-10 04:17N 35°13' E 139°43'0 0.0
2017-Oct-10 03:59N 35°13' E 139°43'0 0.0
2017-Oct-10 03:30N 35°13' E 139°43'0 0.0
2017-Oct-10 02:54N 35°13' E 139°43'1 2.4
2017-Oct-10 02:30N 35°13' E 139°44'3 5.0
2017-Oct-10 02:00N 35°15' E 139°46'611.9
2017-Oct-10 01:30N 35°20' E 139°43'510.8
2017-Oct-10 01:00N 35°25' E 139°44'3 6.9
2017-Oct-10 00:30N 35°24' E 139°48'3 5.8
2017-Oct-10 00:00N 35°21' E 139°49'0 0.1
2017-Oct-09 23:30N 35°21' E 139°49'510.1
2017-Oct-09 23:00N 35°19' E 139°43'2 3.9
2017-Oct-09 22:31N 35°19' E 139°41'1 1.2
2017-Oct-09 21:44N 35°18' E 139°42'2 8.9
2017-Oct-09 21:30N 35°17' E 139°44'4 8.0
2017-Oct-09 20:59N 35°13' E 139°44'1 1.3
2017-Oct-09 20:28N 35°13' E 139°43'0 0.0
2017-Oct-09 20:01N 35°13' E 139°43'0 0.0
2017-Oct-09 18:36N 35°13' E 139°43'0 0.0
2017-Oct-09 18:30N 35°13' E 139°43'0 0.0
2017-Oct-09 18:01N 35°13' E 139°43'0 0.0
2017-Oct-09 17:30N 35°13' E 139°43'0 0.0
2017-Oct-09 17:00N 35°13' E 139°43'0 0.0
2017-Oct-09 16:31N 35°13' E 139°43'0 0.0
2017-Oct-09 16:00N 35°13' E 139°43'0 0.0
2017-Oct-09 15:30N 35°13' E 139°43'0 0.0
2017-Oct-09 15:00N 35°13' E 139°43'0 0.0
2017-Oct-09 14:24N 35°13' E 139°43'0 0.0
2017-Oct-09 13:46N 35°13' E 139°43'0 0.0
2017-Oct-09 13:31N 35°13' E 139°43'0 0.0
2017-Oct-09 13:00N 35°13' E 139°43'0 0.0
2017-Oct-09 12:30N 35°13' E 139°43'0 0.0
2017-Oct-09 12:00N 35°13' E 139°43'0 0.0
2017-Oct-09 11:30N 35°13' E 139°43'0 0.0
2017-Oct-09 11:01N 35°13' E 139°43'0 0.0
2017-Oct-09 10:30N 35°13' E 139°43'0 0.0
2017-Oct-09 09:57N 35°13' E 139°43'0 0.0
2017-Oct-09 08:19N 35°13' E 139°43'1 3.4
2017-Oct-09 08:00N 35°13' E 139°44'3 5.6
2017-Oct-09 07:30N 35°15' E 139°46'612.3
2017-Oct-09 07:00N 35°20' E 139°42'5 5.5
2017-Oct-09 06:03N 35°26' E 139°41'0 0.1
2017-Oct-09 05:59N 35°26' E 139°41'0 0.0
2017-Oct-09 03:30N 35°26' E 139°41'6 6.0
2017-Oct-09 02:29N 35°20' E 139°43'611.3
2017-Oct-09 01:57N 35°14' E 139°47'511.2
2017-Oct-09 01:31N 35°10' E 139°47'2 3.1
2017-Oct-09 01:00N 35°11' E 139°46'3 2.0
2017-Oct-08 23:19N 35°13' E 139°43'0 0.1
2017-Oct-08 23:00N 35°13' E 139°43'0 0.0
2017-Oct-08 22:30N 35°13' E 139°43'0 0.0
2017-Oct-08 22:00N 35°13' E 139°43'0 0.0
2017-Oct-08 21:31N 35°13' E 139°43'0 0.0
2017-Oct-08 21:00N 35°13' E 139°43'0 0.0
2017-Oct-08 20:30N 35°13' E 139°43'0 0.0
2017-Oct-08 20:00N 35°13' E 139°43'0 0.0
2017-Oct-08 19:30N 35°13' E 139°43'0 0.0
2017-Oct-08 19:00N 35°13' E 139°43'0 0.0
2017-Oct-08 18:31N 35°13' E 139°43'0 0.0
2017-Oct-08 18:00N 35°13' E 139°43'0 0.0
2017-Oct-08 17:31N 35°13' E 139°43'0 0.0
2017-Oct-08 17:00N 35°13' E 139°43'  
Track history (hours):
 
Tides and Currents Weather Stations Pressure Air Temp Water Temp Dewpoint Dewpoint Depression Visibility Wind Speed Wind Dir Waves Ship Positions

Aobamaru

Last reported at 2017-Oct-18 16:31 UTC. Time now 2017-Oct-18 16:34 UTC.
Position N 35°13' E 139°43'.

Length 38 m; draft 3 m.

Type: Tug. MMSI: 431003385.

Date/timePositionNaut miles runAvg speedWind from/ knotsBaromVisibWave heightAir tempDewpointWater temp
2017-Oct-18 16:31N 35°13' E 139°43'0 0.0
2017-Oct-18 16:00N 35°13' E 139°43'0 0.0
2017-Oct-18 15:30N 35°13' E 139°43'0 0.0
2017-Oct-18 15:00N 35°13' E 139°43'0 0.0
2017-Oct-18 14:01N 35°13' E 139°43'0 0.0
2017-Oct-18 13:30N 35°13' E 139°43'0 0.0
2017-Oct-18 13:00N 35°13' E 139°43'0 0.0
2017-Oct-18 12:28N 35°13' E 139°43'0 0.0
2017-Oct-18 12:01N 35°13' E 139°43'0 0.0
2017-Oct-18 11:30N 35°13' E 139°43'0 0.0
2017-Oct-18 10:59N 35°13' E 139°43'0 0.0
2017-Oct-18 10:29N 35°13' E 139°43'0 0.0
2017-Oct-18 10:00N 35°13' E 139°43'0 0.0
2017-Oct-18 09:30N 35°13' E 139°43'0 0.0
2017-Oct-18 08:58N 35°13' E 139°43'0 0.0
2017-Oct-18 08:30N 35°13' E 139°43'0 0.0
2017-Oct-18 07:55N 35°13' E 139°43'0 0.0
2017-Oct-18 07:29N 35°13' E 139°43'0 0.0
2017-Oct-18 07:00N 35°13' E 139°43'0 0.0
2017-Oct-18 06:23N 35°13' E 139°43'0 0.0
2017-Oct-18 05:59N 35°13' E 139°43'0 0.0
2017-Oct-18 05:29N 35°13' E 139°43'0 0.0
2017-Oct-18 04:57N 35°13' E 139°43'0 0.0
2017-Oct-18 04:27N 35°13' E 139°43'0 0.0
2017-Oct-18 03:59N 35°13' E 139°43'0 0.0
2017-Oct-18 03:13N 35°13' E 139°43'0 0.0
2017-Oct-18 02:23N 35°13' E 139°43'0 0.0
2017-Oct-18 01:16N 35°13' E 139°43'0 0.0
2017-Oct-18 00:43N 35°13' E 139°43'0 0.0
2017-Oct-18 00:23N 35°13' E 139°43'0 0.0
2017-Oct-17 23:40N 35°13' E 139°43'0 0.0
2017-Oct-17 23:24N 35°13' E 139°43'0 0.0
2017-Oct-17 23:01N 35°13' E 139°43'0 0.0
2017-Oct-17 22:29N 35°13' E 139°43'0 0.0
2017-Oct-17 22:00N 35°13' E 139°43'2 4.9
2017-Oct-17 21:30N 35°12' E 139°46'4 8.8
2017-Oct-17 21:00N 35°17' E 139°45'612.1
2017-Oct-17 20:30N 35°22' E 139°42'2 3.8
2017-Oct-17 20:00N 35°23' E 139°44'0 0.0
2017-Oct-17 19:31N 35°23' E 139°44'0 0.0
2017-Oct-17 19:01N 35°23' E 139°44'0 0.0
2017-Oct-17 18:30N 35°23' E 139°44'0 0.0
2017-Oct-17 18:00N 35°23' E 139°44'0 0.0
2017-Oct-17 17:30N 35°23' E 139°44'0 0.0
2017-Oct-17 17:01N 35°23' E 139°44'0 0.0
2017-Oct-17 16:30N 35°23' E 139°44'4 7.3
2017-Oct-17 16:00N 35°20' E 139°42'611.6
2017-Oct-17 15:30N 35°15' E 139°45'1 1.4
2017-Oct-17 15:00N 35°15' E 139°46'612.9
2017-Oct-17 14:31N 35°21' E 139°42'3 5.7
2017-Oct-17 14:01N 35°23' E 139°41'0 0.5
2017-Oct-17 13:31N 35°23' E 139°40'0 0.0
2017-Oct-17 13:00N 35°23' E 139°40'0 0.0
2017-Oct-17 12:30N 35°23' E 139°40'0 0.0
2017-Oct-17 12:01N 35°23' E 139°40'0 0.0
2017-Oct-17 11:31N 35°23' E 139°40'0 0.0
2017-Oct-17 11:01N 35°23' E 139°40'3 5.1
2017-Oct-17 10:30N 35°20' E 139°41'611.5
2017-Oct-17 10:01N 35°16' E 139°45'2 3.4
2017-Oct-17 09:30N 35°14' E 139°46'612.3
2017-Oct-17 09:00N 35°20' E 139°43'4 8.1
2017-Oct-17 08:30N 35°23' E 139°41'0 1.0
2017-Oct-17 08:01N 35°23' E 139°40'0 0.0
2017-Oct-17 07:30N 35°23' E 139°40'0 0.0
2017-Oct-17 07:01N 35°23' E 139°40'0 0.0
2017-Oct-17 06:30N 35°23' E 139°40'0 0.1
2017-Oct-17 06:00N 35°23' E 139°40'610.9
2017-Oct-17 05:30N 35°26' E 139°46'3 6.9
2017-Oct-17 05:00N 35°26' E 139°50'3 5.1
2017-Oct-17 04:30N 35°25' E 139°47'511.0
2017-Oct-17 04:00N 35°20' E 139°44'510.9
2017-Oct-17 03:30N 35°15' E 139°47'510.6
2017-Oct-17 03:00N 35°10' E 139°47'3 6.1
2017-Oct-17 02:30N 35°13' E 139°46'3 3.9
2017-Oct-17 01:50N 35°13' E 139°43'0 0.0
2017-Oct-17 01:28N 35°13' E 139°43'0 0.0
2017-Oct-17 00:53N 35°13' E 139°43'0 0.0
2017-Oct-16 23:44N 35°13' E 139°43'0 0.0
2017-Oct-16 23:30N 35°13' E 139°43'0 0.0
2017-Oct-16 22:58N 35°13' E 139°43'0 0.0
2017-Oct-16 20:26N 35°13' E 139°43'0 0.0
2017-Oct-16 20:00N 35°13' E 139°43'0 0.0
2017-Oct-16 19:30N 35°13' E 139°43'0 0.0
2017-Oct-16 18:55N 35°13' E 139°43'0 0.0
2017-Oct-16 18:29N 35°13' E 139°43'0 0.0
2017-Oct-16 18:00N 35°13' E 139°43'0 0.0
2017-Oct-16 17:30N 35°13' E 139°43'0 0.0
2017-Oct-16 17:00N 35°13' E 139°43'0 0.0
2017-Oct-16 16:27N 35°13' E 139°43'0 0.0
2017-Oct-16 15:59N 35°13' E 139°43'0 0.0
2017-Oct-16 15:26N 35°13' E 139°43'0 0.0
2017-Oct-16 15:00N 35°13' E 139°43'0 0.0
2017-Oct-16 13:52N 35°13' E 139°43'0 0.0
2017-Oct-16 13:29N 35°13' E 139°43'0 0.0
2017-Oct-16 12:33N 35°13' E 139°43'0 0.0
2017-Oct-16 12:27N 35°13' E 139°43'0 0.0
2017-Oct-16 10:02N 35°13' E 139°43'0 0.0
2017-Oct-16 10:00N 35°13' E 139°43'0 0.0
2017-Oct-16 09:23N 35°13' E 139°43'0 0.0
2017-Oct-16 01:05N 35°13' E 139°43'0 0.1
2017-Oct-16 01:00N 35°13' E 139°43'3 6.0
2017-Oct-16 00:30N 35°16' E 139°45'510.8
2017-Oct-16 00:00N 35°21' E 139°43'612.4
2017-Oct-15 23:30N 35°26' E 139°46'3 5.9
2017-Oct-15 23:01N 35°23' E 139°46'611.2
2017-Oct-15 22:30N 35°17' E 139°45'510.9
2017-Oct-15 22:00N 35°12' E 139°47'1 2.9
2017-Oct-15 21:30N 35°11' E 139°46'4 7.2
2017-Oct-15 21:01N 35°13' E 139°43'0 0.0
2017-Oct-15 20:31N 35°13' E 139°43'0 0.0
2017-Oct-15 20:00N 35°13' E 139°43'0 0.0
2017-Oct-15 19:30N 35°13' E 139°43'0 0.0
2017-Oct-15 19:01N 35°13' E 139°43'0 0.0
2017-Oct-15 18:30N 35°13' E 139°43'0 0.0
2017-Oct-15 18:01N 35°13' E 139°43'0 0.0
2017-Oct-15 17:30N 35°13' E 139°43'0 0.0
2017-Oct-15 17:01N 35°13' E 139°43'2 4.9
2017-Oct-15 16:30N 35°12' E 139°46'4 8.9
2017-Oct-15 16:01N 35°17' E 139°45'611.9
2017-Oct-15 15:30N 35°22' E 139°42'2 4.3
2017-Oct-15 15:00N 35°23' E 139°40'0 0.0
2017-Oct-15 14:00N 35°23' E 139°40'0 0.0
2017-Oct-15 13:30N 35°23' E 139°40'0 0.0
2017-Oct-15 13:00N 35°23' E 139°40'1 1.0
2017-Oct-15 12:30N 35°23' E 139°40'611.8
2017-Oct-15 12:00N 35°18' E 139°43'611.4
2017-Oct-15 11:30N 35°12' E 139°46'611.8
2017-Oct-15 11:01N 35°18' E 139°44'611.6
2017-Oct-15 10:31N 35°23' E 139°41'1 1.4
2017-Oct-15 10:01N 35°23' E 139°40'0 0.3
2017-Oct-15 09:31N 35°23' E 139°40'0 0.0
2017-Oct-15 09:01N 35°23' E 139°40'1 2.8
2017-Oct-15 08:30N 35°23' E 139°41'611.4
2017-Oct-15 08:01N 35°18' E 139°45'612.1
2017-Oct-15 07:30N 35°12' E 139°47'1 2.1
2017-Oct-15 07:00N 35°12' E 139°45'3 5.3
2017-Oct-15 06:30N 35°13' E 139°43'0 0.0
2017-Oct-15 06:00N 35°13' E 139°43'0 0.0
2017-Oct-15 05:30N 35°13' E 139°43'0 0.0
2017-Oct-15 05:00N 35°13' E 139°43'0 0.0
2017-Oct-15 04:30N 35°13' E 139°43'0 0.0
2017-Oct-15 04:00N 35°13' E 139°43'0 0.0
2017-Oct-15 03:30N 35°13' E 139°43'0 0.0
2017-Oct-15 03:00N 35°13' E 139°43'0 0.0
2017-Oct-15 02:30N 35°13' E 139°43'0 0.0
2017-Oct-15 02:00N 35°13' E 139°43'0 0.1
2017-Oct-15 01:30N 35°13' E 139°43'0 0.0
2017-Oct-15 00:59N 35°13' E 139°43'0 0.0
2017-Oct-15 00:30N 35°13' E 139°43'0 0.0
2017-Oct-14 23:59N 35°13' E 139°43'0 0.0
2017-Oct-14 23:29N 35°13' E 139°43'0 0.0
2017-Oct-14 22:59N 35°13' E 139°43'0 0.0
2017-Oct-14 22:26N 35°13' E 139°43'0 0.0
2017-Oct-14 22:00N 35°13' E 139°43'0 0.0
2017-Oct-14 21:28N 35°13' E 139°43'0 0.0
2017-Oct-14 20:54N 35°13' E 139°43'0 0.0
2017-Oct-14 20:30N 35°13' E 139°43'0 0.0
2017-Oct-14 20:00N 35°13' E 139°43'0 0.0
2017-Oct-14 19:29N 35°13' E 139°43'0 0.0
2017-Oct-14 18:55N 35°13' E 139°43'0 0.0
2017-Oct-14 18:29N 35°13' E 139°43'0 0.0
2017-Oct-14 17:46N 35°13' E 139°43'0 0.0
2017-Oct-14 17:30N 35°13' E 139°43'0 0.0
2017-Oct-14 16:59N 35°13' E 139°43'0 0.0
2017-Oct-14 16:17N 35°13' E 139°43'0 0.0
2017-Oct-14 15:57N 35°13' E 139°43'0 0.0
2017-Oct-14 14:40N 35°13' E 139°43'0 0.0
2017-Oct-14 13:54N 35°13' E 139°43'0 0.0
2017-Oct-14 13:30N 35°13' E 139°43'0 0.0
2017-Oct-14 12:59N 35°13' E 139°43'0 0.0
2017-Oct-14 12:06N 35°13' E 139°43'0 0.0
2017-Oct-14 10:22N 35°13' E 139°43'0 0.0
2017-Oct-14 08:23N 35°13' E 139°43'0 0.0
2017-Oct-14 07:42N 35°13' E 139°43'0 0.0
2017-Oct-14 07:25N 35°13' E 139°43'0 0.0
2017-Oct-14 06:24N 35°13' E 139°43'0 0.0
2017-Oct-14 05:20N 35°13' E 139°43'0 0.0
2017-Oct-14 04:54N 35°13' E 139°43'0 0.0
2017-Oct-14 03:19N 35°13' E 139°43'2 7.0
2017-Oct-14 03:00N 35°12' E 139°45'4 7.7
2017-Oct-14 02:30N 35°16' E 139°46'612.5
2017-Oct-14 02:00N 35°22' E 139°42'612.3
2017-Oct-14 01:30N 35°27' E 139°47'8 2.7
2017-Oct-13 22:43N 35°29' E 139°56'311.1
2017-Oct-13 22:27N 35°27' E 139°53'5 9.9
2017-Oct-13 21:58N 35°24' E 139°49'510.6
2017-Oct-13 21:30N 35°20' E 139°45'4 7.1
2017-Oct-13 21:00N 35°17' E 139°44'4 7.0
2017-Oct-13 20:30N 35°13' E 139°43'0 0.2
2017-Oct-13 20:00N 35°13' E 139°43'0 0.0
2017-Oct-13 19:30N 35°13' E 139°43'0 0.0
2017-Oct-13 19:00N 35°13' E 139°43'0 0.0
2017-Oct-13 18:30N 35°13' E 139°43'0 0.0
2017-Oct-13 18:00N 35°13' E 139°43'0 0.0
2017-Oct-13 17:30N 35°13' E 139°43'0 0.0
2017-Oct-13 17:00N 35°13' E 139°43'0 0.0
2017-Oct-13 16:30N 35°13' E 139°43'0 0.0
2017-Oct-13 16:00N 35°13' E 139°43'0 0.0
2017-Oct-13 15:30N 35°13' E 139°43'0 0.0
2017-Oct-13 15:00N 35°13' E 139°43'0 0.0
2017-Oct-13 14:30N 35°13' E 139°43'0 0.0
2017-Oct-13 14:00N 35°13' E 139°43'0 0.0
2017-Oct-13 13:30N 35°13' E 139°43'0 0.0
2017-Oct-13 13:00N 35°13' E 139°43'0 0.0
2017-Oct-13 12:30N 35°13' E 139°43'0 0.0
2017-Oct-13 12:00N 35°13' E 139°43'0 0.0
2017-Oct-13 11:30N 35°13' E 139°43'0 0.0
2017-Oct-13 11:00N 35°13' E 139°43'0 0.0
2017-Oct-13 10:30N 35°13' E 139°43'0 0.0
2017-Oct-13 10:00N 35°13' E 139°43'0 0.0
2017-Oct-13 09:30N 35°13' E 139°43'0 0.0
2017-Oct-13 09:00N 35°13' E 139°43'0 0.0
2017-Oct-13 08:30N 35°13' E 139°43'0 0.0
2017-Oct-13 08:00N 35°13' E 139°43'0 0.0
2017-Oct-13 07:30N 35°13' E 139°43'0 0.0
2017-Oct-13 07:00N 35°13' E 139°43'3 6.7
2017-Oct-13 06:30N 35°16' E 139°45'611.5
2017-Oct-13 06:00N 35°21' E 139°41'611.4
2017-Oct-13 05:30N 35°26' E 139°45'1 2.4
2017-Oct-13 05:00N 35°27' E 139°46'2 4.1
2017-Oct-13 04:30N 35°25' E 139°46'510.4
2017-Oct-13 04:00N 35°20' E 139°44'611.1
2017-Oct-13 03:30N 35°15' E 139°47'510.7
2017-Oct-13 03:01N 35°09' E 139°46'2 3.0
2017-Oct-13 02:30N 35°11' E 139°47'4 7.5
2017-Oct-13 02:00N 35°13' E 139°43'0 0.3
2017-Oct-13 01:30N 35°13' E 139°43'0 0.0
2017-Oct-13 01:00N 35°13' E 139°43'0 0.0
2017-Oct-13 00:30N 35°13' E 139°43'0 0.0
2017-Oct-13 00:00N 35°13' E 139°43'0 0.0
2017-Oct-12 23:30N 35°13' E 139°43'0 0.0
2017-Oct-12 23:00N 35°13' E 139°43'0 0.0
2017-Oct-12 22:30N 35°13' E 139°43'0 0.0
2017-Oct-12 22:00N 35°13' E 139°43'0 0.0
2017-Oct-12 21:30N 35°13' E 139°43'0 0.0
2017-Oct-12 21:00N 35°13' E 139°43'0 0.0
2017-Oct-12 20:30N 35°13' E 139°43'0 0.0
2017-Oct-12 20:00N 35°13' E 139°43'0 0.0
2017-Oct-12 19:30N 35°13' E 139°43'0 0.0
2017-Oct-12 19:00N 35°13' E 139°43'0 0.0
2017-Oct-12 18:30N 35°13' E 139°43'0 0.0
2017-Oct-12 18:00N 35°13' E 139°43'0 0.0
2017-Oct-12 17:30N 35°13' E 139°43'0 0.0
2017-Oct-12 17:00N 35°13' E 139°43'0 0.0
2017-Oct-12 16:30N 35°13' E 139°43'0 0.0
2017-Oct-12 16:00N 35°13' E 139°43'0 0.0
2017-Oct-12 15:30N 35°13' E 139°43'0 0.0
2017-Oct-12 15:00N 35°13' E 139°43'0 0.0
2017-Oct-12 14:30N 35°13' E 139°43'0 0.0
2017-Oct-12 14:00N 35°13' E 139°43'0 0.0
2017-Oct-12 13:30N 35°13' E 139°43'0 0.0
2017-Oct-12 13:00N 35°13' E 139°43'0 0.0
2017-Oct-12 12:30N 35°13' E 139°43'0 0.0
2017-Oct-12 12:00N 35°13' E 139°43'0 0.0
2017-Oct-12 11:30N 35°13' E 139°43'0 0.0
2017-Oct-12 11:00N 35°13' E 139°43'0 0.0
2017-Oct-12 10:30N 35°13' E 139°43'0 0.0
2017-Oct-12 10:00N 35°13' E 139°43'0 0.0
2017-Oct-12 09:30N 35°13' E 139°43'0 0.0
2017-Oct-12 09:00N 35°13' E 139°43'0 0.0
2017-Oct-12 08:30N 35°13' E 139°43'0 0.0
2017-Oct-12 08:00N 35°13' E 139°43'0 0.0
2017-Oct-12 07:30N 35°13' E 139°43'0 0.0
2017-Oct-12 07:00N 35°13' E 139°43'0 0.0
2017-Oct-12 06:30N 35°13' E 139°43'0 0.0
2017-Oct-12 06:00N 35°13' E 139°43'0 0.0
2017-Oct-12 05:30N 35°13' E 139°43'0 0.0
2017-Oct-12 05:00N 35°13' E 139°43'0 0.0
2017-Oct-12 04:30N 35°13' E 139°43'0 0.0
2017-Oct-12 04:00N 35°13' E 139°43'0 0.0
2017-Oct-12 03:30N 35°13' E 139°43'0 0.0
2017-Oct-12 03:00N 35°13' E 139°43'3 6.3
2017-Oct-12 02:30N 35°12' E 139°46'612.1
2017-Oct-12 02:00N 35°18' E 139°44'612.4
2017-Oct-12 01:30N 35°24' E 139°43'4 8.5
2017-Oct-12 01:00N 35°23' E 139°48'3 2.8
2017-Oct-11 23:55N 35°20' E 139°49'1 2.1
2017-Oct-11 23:30N 35°21' E 139°49'0 0.0
2017-Oct-11 23:00N 35°21' E 139°49'0 0.0
2017-Oct-11 22:30N 35°21' E 139°49'0 0.0
2017-Oct-11 22:00N 35°21' E 139°49'0 0.0
2017-Oct-11 21:30N 35°21' E 139°49'5 7.5
2017-Oct-11 20:53N 35°21' E 139°44'411.3
2017-Oct-11 20:30N 35°17' E 139°46'611.9
2017-Oct-11 20:00N 35°11' E 139°47'0 0.9
2017-Oct-11 19:30N 35°11' E 139°47'4 7.1
2017-Oct-11 19:00N 35°13' E 139°43'0 0.3
2017-Oct-11 18:30N 35°13' E 139°43'0 0.0
2017-Oct-11 18:01N 35°13' E 139°43'0 0.0
2017-Oct-11 17:30N 35°13' E 139°43'0 0.0
2017-Oct-11 16:59N 35°13' E 139°43'6 0.4
2017-Oct-10 23:55N 35°19' E 139°44'612.3
2017-Oct-10 23:28N 35°14' E 139°47'511.2
2017-Oct-10 23:00N 35°09' E 139°46'3 6.6
2017-Oct-10 22:30N 35°12' E 139°45'2 3.6
2017-Oct-10 21:59N 35°13' E 139°43'0 0.0
2017-Oct-10 21:29N 35°13' E 139°43'0 0.0
2017-Oct-10 21:00N 35°13' E 139°43'0 0.0
2017-Oct-10 20:27N 35°13' E 139°43'0 0.0
2017-Oct-10 19:50N 35°13' E 139°43'0 0.0
2017-Oct-10 19:30N 35°13' E 139°43'0 0.0
2017-Oct-10 18:56N 35°13' E 139°43'0 0.0
2017-Oct-10 18:30N 35°13' E 139°43'0 0.0
2017-Oct-10 17:52N 35°13' E 139°43'0 0.0
2017-Oct-10 17:27N 35°13' E 139°43'0 0.0
2017-Oct-10 16:58N 35°13' E 139°43'0 0.0
2017-Oct-10 16:26N 35°13' E 139°43'0 0.0
2017-Oct-10 15:59N 35°13' E 139°43'0 0.0
2017-Oct-10 15:30N 35°13' E 139°43'0 0.0
2017-Oct-10 14:42N 35°13' E 139°43'0 0.0
2017-Oct-10 13:58N 35°13' E 139°43'0 0.0
2017-Oct-10 13:30N 35°13' E 139°43'0 0.0
2017-Oct-10 13:00N 35°13' E 139°43'0 0.0
2017-Oct-10 12:30N 35°13' E 139°43'0 0.0
2017-Oct-10 11:36N 35°13' E 139°43'0 0.0
2017-Oct-10 11:23N 35°13' E 139°43'0 0.0
2017-Oct-10 10:31N 35°13' E 139°43'0 0.0
2017-Oct-10 10:30N 35°13' E 139°43'0 0.0
2017-Oct-10 10:00N 35°13' E 139°43'0 0.0
2017-Oct-10 09:30N 35°13' E 139°43'0 0.0
2017-Oct-10 07:15N 35°13' E 139°43'0 0.0
2017-Oct-10 06:56N 35°13' E 139°43'0 0.0
2017-Oct-10 06:29N 35°13' E 139°43'0 0.0
2017-Oct-10 05:41N 35°13' E 139°43'0 0.0
2017-Oct-10 05:15N 35°13' E 139°43'0 0.0
2017-Oct-10 05:00N 35°13' E 139°43'0 0.0
2017-Oct-10 04:17N 35°13' E 139°43'0 0.0
2017-Oct-10 03:59N 35°13' E 139°43'0 0.0
2017-Oct-10 03:30N 35°13' E 139°43'0 0.0
2017-Oct-10 02:54N 35°13' E 139°43'1 2.4
2017-Oct-10 02:30N 35°13' E 139°44'3 5.0
2017-Oct-10 02:00N 35°15' E 139°46'611.9
2017-Oct-10 01:30N 35°20' E 139°43'510.8
2017-Oct-10 01:00N 35°25' E 139°44'3 6.9
2017-Oct-10 00:30N 35°24' E 139°48'3 5.8
2017-Oct-10 00:00N 35°21' E 139°49'0 0.1
2017-Oct-09 23:30N 35°21' E 139°49'510.1
2017-Oct-09 23:00N 35°19' E 139°43'2 3.9
2017-Oct-09 22:31N 35°19' E 139°41'1 1.2
2017-Oct-09 21:44N 35°18' E 139°42'2 8.9
2017-Oct-09 21:30N 35°17' E 139°44'4 8.0
2017-Oct-09 20:59N 35°13' E 139°44'1 1.3
2017-Oct-09 20:28N 35°13' E 139°43'0 0.0
2017-Oct-09 20:01N 35°13' E 139°43'0 0.0
2017-Oct-09 18:36N 35°13' E 139°43'0 0.0
2017-Oct-09 18:30N 35°13' E 139°43'0 0.0
2017-Oct-09 18:01N 35°13' E 139°43'0 0.0
2017-Oct-09 17:30N 35°13' E 139°43'0 0.0
2017-Oct-09 17:00N 35°13' E 139°43'0 0.0
2017-Oct-09 16:31N 35°13' E 139°43'0 0.0
2017-Oct-09 16:00N 35°13' E 139°43'0 0.0
2017-Oct-09 15:30N 35°13' E 139°43'0 0.0
2017-Oct-09 15:00N 35°13' E 139°43'0 0.0
2017-Oct-09 14:24N 35°13' E 139°43'0 0.0
2017-Oct-09 13:46N 35°13' E 139°43'0 0.0
2017-Oct-09 13:31N 35°13' E 139°43'0 0.0
2017-Oct-09 13:00N 35°13' E 139°43'0 0.0
2017-Oct-09 12:30N 35°13' E 139°43'0 0.0
2017-Oct-09 12:00N 35°13' E 139°43'0 0.0
2017-Oct-09 11:30N 35°13' E 139°43'0 0.0
2017-Oct-09 11:01N 35°13' E 139°43'0 0.0
2017-Oct-09 10:30N 35°13' E 139°43'0 0.0
2017-Oct-09 09:57N 35°13' E 139°43'0 0.0
2017-Oct-09 08:19N 35°13' E 139°43'1 3.4
2017-Oct-09 08:00N 35°13' E 139°44'3 5.6
2017-Oct-09 07:30N 35°15' E 139°46'612.3
2017-Oct-09 07:00N 35°20' E 139°42'5 5.5
2017-Oct-09 06:03N 35°26' E 139°41'0 0.1
2017-Oct-09 05:59N 35°26' E 139°41'0 0.0
2017-Oct-09 03:30N 35°26' E 139°41'6 6.0
2017-Oct-09 02:29N 35°20' E 139°43'611.3
2017-Oct-09 01:57N 35°14' E 139°47'511.2
2017-Oct-09 01:31N 35°10' E 139°47'2 3.1
2017-Oct-09 01:00N 35°11' E 139°46'3 2.0
2017-Oct-08 23:19N 35°13' E 139°43'0 0.1
2017-Oct-08 23:00N 35°13' E 139°43'0 0.0
2017-Oct-08 22:30N 35°13' E 139°43'0 0.0
2017-Oct-08 22:00N 35°13' E 139°43'0 0.0
2017-Oct-08 21:31N 35°13' E 139°43'0 0.0
2017-Oct-08 21:00N 35°13' E 139°43'0 0.0
2017-Oct-08 20:30N 35°13' E 139°43'0 0.0
2017-Oct-08 20:00N 35°13' E 139°43'0 0.0
2017-Oct-08 19:30N 35°13' E 139°43'0 0.0
2017-Oct-08 19:00N 35°13' E 139°43'0 0.0
2017-Oct-08 18:31N 35°13' E 139°43'0 0.0
2017-Oct-08 18:00N 35°13' E 139°43'0 0.0
2017-Oct-08 17:31N 35°13' E 139°43'0 0.0
2017-Oct-08 17:00N 35°13' E 139°43'  

Dump ship's entire track history